Time;durP1;ratioP1;P1;durP2;ratioP2;P2;SDS_P1;SDS_P2;PMS_P1;PMS_P2;Temp;Humidity;BMP_temperature;BMP_pressure;BME280_temperature;BME280_humidity;BME280_pressure;Samples;Min_cycle;Max_cycle;Signal;HPM_P1;HPM_P2
2021/03/10 00:02:03;;;;;;;31.52;18.27;;;;;;;;;;5032233;28;20053;-73
2021/03/10 00:04:31;;;;;;;26.15;16.08;;;;;;;;;;5034269;28;20424;-73
2021/03/10 00:06:57;;;;;;;29.27;17.63;;;;;;;;;;5012604;28;20053;-73
2021/03/10 00:09:24;;;;;;;32.53;17.70;;;;;;;;;;4996702;28;20084;-75
2021/03/10 00:11:50;;;;;;;28.88;17.45;;;;;;;;;;5029205;28;20054;-73
2021/03/10 00:14:16;;;;;;;30.75;18.02;;;;;;;;;;5033095;28;20076;-75
2021/03/10 00:16:42;;;;;;;28.15;15.55;;;;;;;;;;5012148;28;20073;-74
2021/03/10 00:19:08;;;;;;;28.67;16.60;;;;;;;;;;5014142;28;20092;-73
2021/03/10 00:21:34;;;;;;;29.35;17.25;;;;;;;;;;5013597;28;20046;-74
2021/03/10 00:24:00;;;;;;;27.50;16.90;;;;;;;;;;5013801;28;20046;-72
2021/03/10 00:26:26;;;;;;;28.98;17.05;;;;;;;;;;5016870;28;20072;-73
2021/03/10 00:28:52;;;;;;;26.73;16.67;;;;;;;;;;5038217;28;20045;-74
2021/03/10 00:31:18;;;;;;;29.40;17.27;;;;;;;;;;5033940;28;20516;-73
2021/03/10 00:33:45;;;;;;;28.48;16.67;;;;;;;;;;5033570;28;20080;-73
2021/03/10 00:36:11;;;;;;;29.23;17.55;;;;;;;;;;5033509;28;20107;-73
2021/03/10 00:38:37;;;;;;;29.85;16.73;;;;;;;;;;5015229;28;20100;-73
2021/03/10 00:41:03;;;;;;;27.70;16.05;;;;;;;;;;5019985;28;20073;-74
2021/03/10 00:43:29;;;;;;;29.98;16.80;;;;;;;;;;5033840;28;20091;-74
2021/03/10 00:45:55;;;;;;;34.28;17.15;;;;;;;;;;5015952;28;20054;-73
2021/03/10 00:48:21;;;;;;;28.40;16.20;;;;;;;;;;5023836;28;20496;-73
2021/03/10 00:50:47;;;;;;;30.65;16.80;;;;;;;;;;5013521;28;20459;-73
2021/03/10 00:53:13;;;;;;;28.67;16.98;;;;;;;;;;5018975;28;20447;-73
2021/03/10 00:55:40;;;;;;;29.17;17.45;;;;;;;;;;5015149;28;20056;-73
2021/03/10 00:58:06;;;;;;;26.70;14.77;;;;;;;;;;5033401;28;20045;-74
2021/03/10 01:00:32;;;;;;;27.33;16.33;;;;;;;;;;5030121;28;20057;-74
2021/03/10 01:02:58;;;;;;;27.98;16.95;;;;;;;;;;4996155;28;20046;-73
2021/03/10 01:05:41;;;;;;;26.75;16.15;;;;;;;;;;5012438;28;20061;-74
2021/03/10 01:08:07;;;;;;;28.17;16.15;;;;;;;;;;5012100;28;20101;-73
2021/03/10 01:10:33;;;;;;;29.23;16.85;;;;;;;;;;5031284;28;20476;-74
2021/03/10 01:12:59;;;;;;;30.67;17.15;;;;;;;;;;5013046;28;20046;-73
2021/03/10 01:15:25;;;;;;;31.60;16.20;;;;;;;;;;5011352;28;20116;-74
2021/03/10 01:17:51;;;;;;;32.38;18.23;;;;;;;;;;4995536;28;20108;-73
2021/03/10 01:20:23;;;;;;;27.58;17.02;;;;;;;;;;5013118;28;20069;-73
2021/03/10 01:22:49;;;;;;;29.02;18.02;;;;;;;;;;5012777;28;20093;-73
2021/03/10 01:25:15;;;;;;;31.17;17.98;;;;;;;;;;5011256;28;20127;-73
2021/03/10 01:27:41;;;;;;;32.83;19.73;;;;;;;;;;5012520;28;20520;-73
2021/03/10 01:30:09;;;;;;;34.95;19.98;;;;;;;;;;5020018;28;20111;-73
2021/03/10 01:32:36;;;;;;;32.33;19.00;;;;;;;;;;4998789;28;20045;-73
2021/03/10 01:35:04;;;;;;;35.20;18.73;;;;;;;;;;5031304;28;20079;-74
2021/03/10 01:37:30;;;;;;;34.75;19.73;;;;;;;;;;5014543;28;20108;-73
2021/03/10 01:39:57;;;;;;;34.13;20.08;;;;;;;;;;5014798;28;20053;-73
2021/03/10 01:42:23;;;;;;;39.13;21.30;;;;;;;;;;5032371;28;20076;-73
2021/03/10 01:44:49;;;;;;;41.83;22.23;;;;;;;;;;5032443;28;20045;-73
2021/03/10 01:47:15;;;;;;;37.03;21.25;;;;;;;;;;5031959;28;20073;-73
2021/03/10 01:49:42;;;;;;;34.90;19.98;;;;;;;;;;4998600;28;20050;-74
2021/03/10 01:52:09;;;;;;;34.80;20.23;;;;;;;;;;5014518;28;20045;-73
2021/03/10 01:54:35;;;;;;;36.88;20.20;;;;;;;;;;5014365;28;20103;-73
2021/03/10 01:57:02;;;;;;;36.58;20.73;;;;;;;;;;5029707;28;20046;-73
2021/03/10 01:59:28;;;;;;;38.90;21.73;;;;;;;;;;5010893;28;20139;-73
2021/03/10 02:01:54;;;;;;;37.75;21.17;;;;;;;;;;5012111;28;20104;-73
2021/03/10 02:04:20;;;;;;;37.83;20.77;;;;;;;;;;5012162;28;20052;-73
2021/03/10 02:06:56;;;;;;;39.88;21.10;;;;;;;;;;5015513;28;20508;-73
2021/03/10 02:09:35;;;;;;;34.67;19.98;;;;;;;;;;5014732;28;20049;-73
2021/03/10 02:12:14;;;;;;;37.90;21.25;;;;;;;;;;5015309;28;20045;-74
2021/03/10 02:15:01;;;;;;;39.88;20.85;;;;;;;;;;4998994;28;20099;-73
2021/03/10 02:17:29;;;;;;;38.40;20.40;;;;;;;;;;5012085;28;20123;-73
2021/03/10 02:20:02;;;;;;;38.88;21.10;;;;;;;;;;4978450;28;20107;-73
2021/03/10 02:23:02;;;;;;;37.22;21.48;;;;;;;;;;5011776;28;20107;-74
2021/03/10 02:25:40;;;;;;;38.63;21.65;;;;;;;;;;5030997;28;20061;-73
2021/03/10 02:28:06;;;;;;;41.35;21.23;;;;;;;;;;5014121;28;20081;-73
2021/03/10 02:30:36;;;;;;;38.92;20.08;;;;;;;;;;4994162;28;20458;-73
2021/03/10 02:33:11;;;;;;;42.38;21.55;;;;;;;;;;5011729;28;20049;-73
2021/03/10 02:35:50;;;;;;;40.97;21.92;;;;;;;;;;5013876;28;20061;-73
2021/03/10 02:38:19;;;;;;;39.10;20.63;;;;;;;;;;5014293;28;20049;-73
2021/03/10 02:40:46;;;;;;;38.42;21.25;;;;;;;;;;5030919;28;20056;-75
2021/03/10 02:43:12;;;;;;;39.72;22.02;;;;;;;;;;5010077;28;20412;-74
2021/03/10 02:45:38;;;;;;;39.30;21.27;;;;;;;;;;5029502;28;20496;-73
2021/03/10 02:48:05;;;;;;;33.97;20.80;;;;;;;;;;5031576;28;20107;-74
2021/03/10 02:50:32;;;;;;;40.47;21.20;;;;;;;;;;5013728;28;20049;-73
2021/03/10 02:52:58;;;;;;;40.13;21.55;;;;;;;;;;5021009;28;20037;-73
2021/03/10 02:55:25;;;;;;;41.67;22.30;;;;;;;;;;5029355;28;20115;-73
2021/03/10 02:57:51;;;;;;;39.85;22.10;;;;;;;;;;5002845;28;20053;-73
2021/03/10 03:00:20;;;;;;;40.75;22.58;;;;;;;;;;4998789;28;20054;-74
2021/03/10 03:02:46;;;;;;;41.42;22.48;;;;;;;;;;5012702;28;20045;-74
2021/03/10 03:05:12;;;;;;;42.92;22.52;;;;;;;;;;5010965;28;20046;-74
2021/03/10 03:07:39;;;;;;;42.28;23.95;;;;;;;;;;4994827;28;20463;-74
2021/03/10 03:10:08;;;;;;;43.22;22.35;;;;;;;;;;5012613;28;20092;-75
2021/03/10 03:12:34;;;;;;;43.38;22.77;;;;;;;;;;5017214;28;20123;-74
2021/03/10 03:15:00;;;;;;;39.45;20.92;;;;;;;;;;5031096;28;20459;-76
2021/03/10 03:17:29;;;;;;;42.63;22.67;;;;;;;;;;5013948;28;20107;-74
2021/03/10 03:19:55;;;;;;;45.33;22.83;;;;;;;;;;5030924;28;20064;-73
2021/03/10 03:22:22;;;;;;;42.30;22.40;;;;;;;;;;5010826;28;20099;-74
2021/03/10 03:24:48;;;;;;;40.55;22.58;;;;;;;;;;5013287;28;20080;-73
2021/03/10 03:27:25;;;;;;;44.92;22.88;;;;;;;;;;4993878;28;20084;-73
2021/03/10 03:29:54;;;;;;;43.15;22.85;;;;;;;;;;5010806;28;20050;-74
2021/03/10 03:32:21;;;;;;;43.63;23.23;;;;;;;;;;5013573;28;20401;-73
2021/03/10 03:34:48;;;;;;;41.70;24.50;;;;;;;;;;4997881;28;20394;-73
2021/03/10 03:37:14;;;;;;;40.15;22.35;;;;;;;;;;4998589;28;20050;-73
2021/03/10 03:39:40;;;;;;;41.55;21.42;;;;;;;;;;5016835;28;20103;-74
2021/03/10 03:42:06;;;;;;;37.28;22.02;;;;;;;;;;5018520;28;20085;-73
2021/03/10 03:44:32;;;;;;;37.08;20.50;;;;;;;;;;5034570;28;20108;-73
2021/03/10 03:46:58;;;;;;;38.75;21.50;;;;;;;;;;5000552;28;20053;-74
2021/03/10 03:49:25;;;;;;;35.13;20.73;;;;;;;;;;5001053;28;20053;-73
2021/03/10 03:51:51;;;;;;;37.63;20.75;;;;;;;;;;5028536;28;20085;-73
2021/03/10 03:54:17;;;;;;;40.22;22.80;;;;;;;;;;5024841;28;20042;-73
2021/03/10 03:56:43;;;;;;;38.08;22.02;;;;;;;;;;5026444;28;20057;-74
2021/03/10 03:59:09;;;;;;;40.17;21.52;;;;;;;;;;5031706;28;20570;-73
2021/03/10 04:01:35;;;;;;;38.35;21.33;;;;;;;;;;5022676;28;20049;-74
2021/03/10 04:04:01;;;;;;;40.20;22.33;;;;;;;;;;5033203;28;20420;-73
2021/03/10 04:06:27;;;;;;;36.30;20.45;;;;;;;;;;5021717;28;20096;-73
2021/03/10 04:08:53;;;;;;;43.42;23.25;;;;;;;;;;5014493;28;20089;-73
2021/03/10 04:11:19;;;;;;;39.10;22.02;;;;;;;;;;5006343;28;20476;-74
2021/03/10 04:13:45;;;;;;;39.05;21.58;;;;;;;;;;5014485;28;20049;-74
2021/03/10 04:16:11;;;;;;;43.00;21.92;;;;;;;;;;5016317;28;20046;-74
2021/03/10 04:18:39;;;;;;;39.65;21.42;;;;;;;;;;5017113;28;20563;-73
2021/03/10 04:21:05;;;;;;;39.35;21.33;;;;;;;;;;5017226;28;20084;-74
2021/03/10 04:23:32;;;;;;;37.85;21.35;;;;;;;;;;5033006;28;20046;-73
2021/03/10 04:25:58;;;;;;;41.60;22.55;;;;;;;;;;5032695;28;20488;-73
2021/03/10 04:28:24;;;;;;;37.22;20.42;;;;;;;;;;5034748;28;20050;-74
2021/03/10 04:30:51;;;;;;;38.65;21.02;;;;;;;;;;5033722;28;20086;-74
2021/03/10 04:33:17;;;;;;;38.67;21.10;;;;;;;;;;5032607;28;20052;-74
2021/03/10 04:35:43;;;;;;;39.92;22.08;;;;;;;;;;5015203;28;20549;-74
2021/03/10 04:38:25;;;;;;;37.22;21.17;;;;;;;;;;5033261;28;20053;-74
2021/03/10 04:40:51;;;;;;;43.75;21.55;;;;;;;;;;5033316;28;20107;-74
2021/03/10 04:43:17;;;;;;;45.47;23.95;;;;;;;;;;5033725;28;20393;-74
2021/03/10 04:45:43;;;;;;;37.25;21.70;;;;;;;;;;5032899;28;20512;-73
2021/03/10 04:48:09;;;;;;;40.08;21.90;;;;;;;;;;4998402;28;20526;-74
2021/03/10 04:50:35;;;;;;;39.50;21.92;;;;;;;;;;5013582;28;20092;-73
2021/03/10 04:53:01;;;;;;;42.50;22.27;;;;;;;;;;5013583;28;20093;-73
2021/03/10 04:55:27;;;;;;;42.72;23.48;;;;;;;;;;5017254;28;20045;-73
2021/03/10 04:57:53;;;;;;;42.85;24.00;;;;;;;;;;5023586;28;20054;-74
2021/03/10 05:00:20;;;;;;;43.65;23.42;;;;;;;;;;5016327;28;20049;-73
2021/03/10 05:02:46;;;;;;;40.95;22.52;;;;;;;;;;5022837;28;20066;-74
2021/03/10 05:05:13;;;;;;;43.33;23.40;;;;;;;;;;5022958;28;20104;-74
2021/03/10 05:07:43;;;;;;;43.45;23.42;;;;;;;;;;5020985;28;20041;-74
2021/03/10 05:10:10;;;;;;;40.13;22.30;;;;;;;;;;5023866;28;20049;-74
2021/03/10 05:12:36;;;;;;;41.88;22.45;;;;;;;;;;5015680;28;20492;-73
2021/03/10 05:15:03;;;;;;;43.13;23.35;;;;;;;;;;5016005;28;20563;-74
2021/03/10 05:17:29;;;;;;;45.50;23.45;;;;;;;;;;5032488;28;20060;-74
2021/03/10 05:19:56;;;;;;;41.60;22.35;;;;;;;;;;5023712;28;20132;-74
2021/03/10 05:22:23;;;;;;;44.67;23.52;;;;;;;;;;4979126;28;20054;-73
2021/03/10 05:24:49;;;;;;;43.33;22.15;;;;;;;;;;5012966;28;20401;-73
2021/03/10 05:27:15;;;;;;;43.58;23.20;;;;;;;;;;5012355;28;20092;-74
2021/03/10 05:29:42;;;;;;;40.88;22.85;;;;;;;;;;5013541;28;20570;-74
2021/03/10 05:32:09;;;;;;;42.65;21.45;;;;;;;;;;4999078;28;20092;-73
2021/03/10 05:34:35;;;;;;;41.83;23.60;;;;;;;;;;5032669;28;20050;-74
2021/03/10 05:37:01;;;;;;;43.80;24.02;;;;;;;;;;5025957;28;20100;-73
2021/03/10 05:39:27;;;;;;;41.83;22.13;;;;;;;;;;5004068;28;20077;-73
2021/03/10 05:41:56;;;;;;;44.28;24.15;;;;;;;;;;5032554;28;20103;-73
2021/03/10 05:44:22;;;;;;;47.00;22.48;;;;;;;;;;5019119;28;20199;-74
2021/03/10 05:46:48;;;;;;;41.50;22.83;;;;;;;;;;5011998;28;20058;-74
2021/03/10 05:49:14;;;;;;;41.72;21.92;;;;;;;;;;4995554;28;20497;-74
2021/03/10 05:51:44;;;;;;;39.65;21.67;;;;;;;;;;5021166;28;20053;-74
2021/03/10 05:54:12;;;;;;;43.72;23.88;;;;;;;;;;5016920;28;20080;-74
2021/03/10 05:56:42;;;;;;;43.50;23.02;;;;;;;;;;4994805;28;20120;-73
2021/03/10 05:59:08;;;;;;;43.88;23.63;;;;;;;;;;5000446;28;20053;-73
2021/03/10 06:01:35;;;;;;;45.25;23.77;;;;;;;;;;5022673;28;20049;-73
2021/03/10 06:04:03;;;;;;;45.92;23.15;;;;;;;;;;4997611;28;20053;-73
2021/03/10 06:06:40;;;;;;;45.40;23.10;;;;;;;;;;5010994;28;20096;-74
2021/03/10 06:09:13;;;;;;;39.08;22.48;;;;;;;;;;5022917;28;20045;-73
2021/03/10 06:11:52;;;;;;;45.58;24.30;;;;;;;;;;5000756;28;20138;-75
2021/03/10 06:14:18;;;;;;;41.92;24.00;;;;;;;;;;5010984;28;20078;-73
2021/03/10 06:16:44;;;;;;;42.13;23.10;;;;;;;;;;5011866;28;20076;-73
2021/03/10 06:19:11;;;;;;;47.05;24.23;;;;;;;;;;5031689;28;20516;-73
2021/03/10 06:21:48;;;;;;;40.60;22.50;;;;;;;;;;5030328;28;20569;-73
2021/03/10 06:24:14;;;;;;;42.28;22.83;;;;;;;;;;5030459;28;20103;-73
2021/03/10 06:26:40;;;;;;;47.05;24.27;;;;;;;;;;5030970;28;20127;-72
2021/03/10 06:29:13;;;;;;;46.28;23.98;;;;;;;;;;5014097;28;20511;-72
2021/03/10 06:31:39;;;;;;;41.22;21.27;;;;;;;;;;5031467;28;20088;-72
2021/03/10 06:34:10;;;;;;;42.25;22.85;;;;;;;;;;5012805;28;20049;-71
2021/03/10 06:36:39;;;;;;;42.90;23.52;;;;;;;;;;5014375;28;20049;-75
2021/03/10 06:39:07;;;;;;;48.08;22.27;;;;;;;;;;5012569;28;20049;-74
2021/03/10 06:41:34;;;;;;;43.58;22.52;;;;;;;;;;4991622;28;20072;-74
2021/03/10 06:44:00;;;;;;;41.58;22.15;;;;;;;;;;5012181;28;20127;-73
2021/03/10 06:46:27;;;;;;;44.45;22.90;;;;;;;;;;5024813;28;20049;-74
2021/03/10 06:49:02;;;;;;;41.30;23.52;;;;;;;;;;5008733;28;20132;-73
2021/03/10 06:51:31;;;;;;;40.92;22.67;;;;;;;;;;5024673;28;20061;-75
2021/03/10 06:53:57;;;;;;;42.97;22.58;;;;;;;;;;4993851;28;20081;-74
2021/03/10 06:56:30;;;;;;;41.03;22.42;;;;;;;;;;5027460;28;20115;-73
2021/03/10 06:59:00;;;;;;;43.22;22.48;;;;;;;;;;5010693;28;20045;-73
2021/03/10 07:01:28;;;;;;;43.40;23.55;;;;;;;;;;5023727;28;20077;-73
2021/03/10 07:03:55;;;;;;;42.33;22.38;;;;;;;;;;4994774;28;20076;-73
2021/03/10 07:06:23;;;;;;;41.40;22.92;;;;;;;;;;5028126;28;20106;-74
2021/03/10 07:08:49;;;;;;;41.33;22.75;;;;;;;;;;5032430;28;20093;-74
2021/03/10 07:11:15;;;;;;;42.15;22.85;;;;;;;;;;5027241;28;20053;-74
2021/03/10 07:13:42;;;;;;;39.22;22.40;;;;;;;;;;5011565;28;20463;-75
2021/03/10 07:16:09;;;;;;;37.72;22.75;;;;;;;;;;5003943;28;20099;-73
2021/03/10 07:18:36;;;;;;;38.78;21.00;;;;;;;;;;4996613;28;20049;-75
2021/03/10 07:21:03;;;;;;;39.70;22.10;;;;;;;;;;5032912;28;20049;-73
2021/03/10 07:23:29;;;;;;;41.78;21.67;;;;;;;;;;5015546;28;20096;-73
2021/03/10 07:25:55;;;;;;;42.88;22.92;;;;;;;;;;5020872;28;20131;-73
2021/03/10 07:28:26;;;;;;;37.85;21.48;;;;;;;;;;4992931;28;20108;-73
2021/03/10 07:30:52;;;;;;;39.22;22.80;;;;;;;;;;5001132;28;20123;-71
2021/03/10 07:33:20;;;;;;;42.92;24.85;;;;;;;;;;5030981;28;20045;-71
2021/03/10 07:35:50;;;;;;;43.22;24.05;;;;;;;;;;5010162;28;20061;-71
2021/03/10 07:38:17;;;;;;;40.75;22.67;;;;;;;;;;5012086;28;20053;-71
2021/03/10 07:41:00;;;;;;;38.15;21.60;;;;;;;;;;5011798;28;20077;-73
2021/03/10 07:43:43;;;;;;;35.38;20.90;;;;;;;;;;4994239;28;20084;-72
2021/03/10 07:46:28;;;;;;;40.25;22.75;;;;;;;;;;5019147;28;20116;-69
2021/03/10 07:48:55;;;;;;;38.92;21.63;;;;;;;;;;5029705;28;20508;-72
2021/03/10 07:51:35;;;;;;;38.28;22.50;;;;;;;;;;5022653;28;20049;-74
2021/03/10 07:54:17;;;;;;;35.70;20.95;;;;;;;;;;4997851;28;20050;-71
2021/03/10 07:56:43;;;;;;;39.35;22.45;;;;;;;;;;4995399;28;20099;-71
2021/03/10 07:59:16;;;;;;;35.22;20.40;;;;;;;;;;5029962;28;20073;-71
2021/03/10 08:01:48;;;;;;;36.10;20.52;;;;;;;;;;5026367;28;20516;-72
2021/03/10 08:04:17;;;;;;;38.10;22.65;;;;;;;;;;5030536;28;20123;-71
2021/03/10 08:06:52;;;;;;;37.25;21.85;;;;;;;;;;5013068;28;20053;-73
2021/03/10 08:09:20;;;;;;;36.85;21.85;;;;;;;;;;5003867;28;20046;-73
2021/03/10 08:11:48;;;;;;;36.40;21.88;;;;;;;;;;5013770;28;20103;-72
2021/03/10 08:14:16;;;;;;;37.25;22.38;;;;;;;;;;4997850;28;20037;-72
2021/03/10 08:16:49;;;;;;;41.67;22.08;;;;;;;;;;5028093;28;20077;-73
2021/03/10 08:19:23;;;;;;;37.05;21.85;;;;;;;;;;5014161;28;20459;-74
2021/03/10 08:21:54;;;;;;;37.58;21.08;;;;;;;;;;4982712;28;20107;-71
2021/03/10 08:24:21;;;;;;;37.92;22.25;;;;;;;;;;5014196;28;20041;-71
2021/03/10 08:26:49;;;;;;;38.00;21.88;;;;;;;;;;5027874;28;20054;-71
2021/03/10 08:29:47;;;;;;;38.30;21.90;;;;;;;;;;5014152;28;20046;-72
2021/03/10 08:32:47;;;;;;;38.05;22.02;;;;;;;;;;5007933;28;20053;-72
2021/03/10 08:35:20;;;;;;;35.95;20.70;;;;;;;;;;4975951;28;20052;-72
2021/03/10 08:38:00;;;;;;;42.28;22.33;;;;;;;;;;4979330;28;20164;-72
2021/03/10 08:40:28;;;;;;;36.20;21.15;;;;;;;;;;5012573;28;20049;-73
2021/03/10 08:42:55;;;;;;;37.22;21.75;;;;;;;;;;5013282;28;20049;-74
2021/03/10 08:45:23;;;;;;;37.15;21.95;;;;;;;;;;5029013;28;20107;-74
2021/03/10 08:48:15;;;;;;;36.30;21.33;;;;;;;;;;5013132;28;20470;-74
2021/03/10 08:50:47;;;;;;;37.05;21.25;;;;;;;;;;5009484;28;20107;-73
2021/03/10 08:53:16;;;;;;;40.53;22.33;;;;;;;;;;5007796;28;20084;-73
2021/03/10 08:55:44;;;;;;;36.20;20.92;;;;;;;;;;4986835;28;20843;-73
2021/03/10 08:58:18;;;;;;;36.53;19.48;;;;;;;;;;4981346;28;20144;-76
2021/03/10 09:00:45;;;;;;;33.65;20.60;;;;;;;;;;4982592;28;20424;-72
2021/03/10 09:03:13;;;;;;;34.38;20.38;;;;;;;;;;5013647;28;20194;-73
2021/03/10 09:05:40;;;;;;;41.67;22.48;;;;;;;;;;4996568;28;20085;-74
2021/03/10 09:08:07;;;;;;;32.25;20.17;;;;;;;;;;4997190;28;20103;-74
2021/03/10 09:10:35;;;;;;;35.08;21.60;;;;;;;;;;4996654;28;20049;-76
2021/03/10 09:13:01;;;;;;;43.10;23.23;;;;;;;;;;4996638;28;20053;-71
2021/03/10 09:15:29;;;;;;;35.03;21.08;;;;;;;;;;5029271;28;20095;-69
2021/03/10 09:18:01;;;;;;;35.13;19.88;;;;;;;;;;5030632;28;20045;-69
2021/03/10 09:20:30;;;;;;;32.53;20.05;;;;;;;;;;5030196;28;20394;-71
2021/03/10 09:22:58;;;;;;;31.58;18.88;;;;;;;;;;5029914;28;20055;-71
2021/03/10 09:25:30;;;;;;;34.15;19.25;;;;;;;;;;5028736;28;20500;-72
2021/03/10 09:28:09;;;;;;;33.60;20.02;;;;;;;;;;5029729;28;20115;-71
2021/03/10 09:30:42;;;;;;;33.13;19.65;;;;;;;;;;5025354;28;20429;-74
2021/03/10 09:33:24;;;;;;;32.33;19.75;;;;;;;;;;4979565;28;20436;-71
2021/03/10 09:35:58;;;;;;;34.83;19.70;;;;;;;;;;5025987;28;20472;-71
2021/03/10 09:38:31;;;;;;;32.05;18.02;;;;;;;;;;5027558;28;20116;-71
2021/03/10 09:41:02;;;;;;;30.17;18.20;;;;;;;;;;5029690;28;20164;-69
2021/03/10 09:43:30;;;;;;;30.15;18.52;;;;;;;;;;5029126;28;20049;-70
2021/03/10 09:45:59;;;;;;;29.98;17.73;;;;;;;;;;5028776;28;20049;-69
2021/03/10 09:48:33;;;;;;;30.48;17.88;;;;;;;;;;5029253;28;20084;-72
2021/03/10 09:51:06;;;;;;;28.98;18.05;;;;;;;;;;5026538;28;20136;-72
2021/03/10 09:53:32;;;;;;;;;;;;;;;;;;5029723;28;20053;-69
2021/03/10 09:56:05;;;;;;;30.33;19.13;;;;;;;;;;5026830;28;19925;-70
2021/03/10 09:58:31;;;;;;;29.10;17.50;;;;;;;;;;5025020;28;20052;-69
2021/03/10 10:00:59;;;;;;;29.48;17.50;;;;;;;;;;5026910;28;20057;-72
2021/03/10 10:03:26;;;;;;;33.35;18.77;;;;;;;;;;5028549;28;20045;-71
2021/03/10 10:06:02;;;;;;;30.55;18.20;;;;;;;;;;5024556;28;20621;-70
2021/03/10 10:08:28;;;;;;;33.17;18.05;;;;;;;;;;4990575;28;20077;-70
2021/03/10 10:10:54;;;;;;;30.33;17.75;;;;;;;;;;5027652;28;20641;-69
2021/03/10 10:13:41;;;;;;;34.35;19.30;;;;;;;;;;5026808;28;20045;-71
2021/03/10 10:16:08;;;;;;;31.25;17.42;;;;;;;;;;5026619;28;20496;-71
2021/03/10 10:18:40;;;;;;;31.20;17.90;;;;;;;;;;5028383;28;20053;-71
2021/03/10 10:21:06;;;;;;;33.45;17.67;;;;;;;;;;5012319;28;20045;-73
2021/03/10 10:23:33;;;;;;;31.63;18.15;;;;;;;;;;5029341;28;20076;-71
2021/03/10 10:26:01;;;;;;;26.50;16.15;;;;;;;;;;5026772;28;20065;-73
2021/03/10 10:28:27;;;;;;;27.88;16.08;;;;;;;;;;5023822;28;20045;-73
2021/03/10 10:30:54;;;;;;;23.08;14.13;;;;;;;;;;4986586;28;20131;-72
2021/03/10 10:33:20;;;;;;;20.48;12.45;;;;;;;;;;4995380;28;20107;-74
2021/03/10 10:35:47;;;;;;;24.63;13.75;;;;;;;;;;5027081;28;20117;-71
2021/03/10 10:38:13;;;;;;;17.75;10.25;;;;;;;;;;5029592;28;20518;-73
2021/03/10 10:40:39;;;;;;;14.73;9.32;;;;;;;;;;5031327;28;20053;-73
2021/03/10 10:43:06;;;;;;;13.38;8.48;;;;;;;;;;5000034;28;20042;-69
2021/03/10 10:45:32;;;;;;;13.98;8.98;;;;;;;;;;5031862;28;20061;-70
2021/03/10 10:47:58;;;;;;;14.30;7.95;;;;;;;;;;5033683;28;20076;-70
2021/03/10 10:50:25;;;;;;;12.90;7.05;;;;;;;;;;5033200;28;20551;-71
2021/03/10 10:52:51;;;;;;;10.30;6.32;;;;;;;;;;5030769;28;20108;-71
2021/03/10 10:55:19;;;;;;;8.57;5.88;;;;;;;;;;5029822;28;20056;-72
2021/03/10 10:57:46;;;;;;;10.30;5.72;;;;;;;;;;5014123;28;20054;-71
2021/03/10 11:00:16;;;;;;;9.02;5.40;;;;;;;;;;4999092;28;20143;-69
2021/03/10 11:02:44;;;;;;;12.18;7.53;;;;;;;;;;5000016;28;20053;-68
2021/03/10 11:05:11;;;;;;;12.95;7.53;;;;;;;;;;5034283;28;20054;-74
2021/03/10 11:07:37;;;;;;;12.50;7.53;;;;;;;;;;4998967;28;20057;-69
2021/03/10 11:10:05;;;;;;;13.20;8.27;;;;;;;;;;5029923;28;20080;-74
2021/03/10 11:12:31;;;;;;;11.95;7.68;;;;;;;;;;5015970;28;20057;-73
2021/03/10 11:14:58;;;;;;;12.80;8.43;;;;;;;;;;5014159;28;20045;-73
2021/03/10 11:17:24;;;;;;;14.15;8.65;;;;;;;;;;5006352;28;20531;-73
2021/03/10 11:19:50;;;;;;;12.27;8.35;;;;;;;;;;5033996;28;20049;-74
2021/03/10 11:22:17;;;;;;;13.48;7.70;;;;;;;;;;5016035;28;20469;-70
2021/03/10 11:24:43;;;;;;;12.05;7.60;;;;;;;;;;5034455;28;20057;-72
2021/03/10 11:27:09;;;;;;;9.23;6.43;;;;;;;;;;4999508;28;20049;-71
2021/03/10 11:29:36;;;;;;;12.50;7.00;;;;;;;;;;5033494;28;20523;-74
2021/03/10 11:32:03;;;;;;;9.27;6.15;;;;;;;;;;5028617;28;20050;-72
2021/03/10 11:34:30;;;;;;;7.82;5.30;;;;;;;;;;5029703;28;20053;-76
2021/03/10 11:36:56;;;;;;;6.97;4.53;;;;;;;;;;4997504;28;20140;-72
2021/03/10 11:39:22;;;;;;;5.93;4.00;;;;;;;;;;5016005;28;20099;-72
2021/03/10 11:41:49;;;;;;;7.30;4.57;;;;;;;;;;4998376;28;20071;-75
2021/03/10 11:44:15;;;;;;;9.05;5.35;;;;;;;;;;4980242;28;20104;-75
2021/03/10 11:46:41;;;;;;;9.20;5.85;;;;;;;;;;4981540;28;20056;-75
2021/03/10 11:49:07;;;;;;;6.90;4.85;;;;;;;;;;5014554;28;20531;-73
2021/03/10 11:51:34;;;;;;;10.90;6.72;;;;;;;;;;5030222;28;20060;-73
2021/03/10 11:54:01;;;;;;;9.77;6.60;;;;;;;;;;5032273;28;20058;-71
2021/03/10 11:56:28;;;;;;;11.65;6.68;;;;;;;;;;5006440;28;20053;-73
2021/03/10 11:58:55;;;;;;;11.68;6.82;;;;;;;;;;5025318;28;20588;-71
2021/03/10 12:01:21;;;;;;;10.23;6.90;;;;;;;;;;5025593;28;20712;-71
2021/03/10 12:03:47;;;;;;;15.25;7.50;;;;;;;;;;5029565;28;20045;-72
2021/03/10 12:06:13;;;;;;;9.68;6.70;;;;;;;;;;5029398;28;20056;-72
2021/03/10 12:08:39;;;;;;;10.45;7.00;;;;;;;;;;5026498;28;20065;-76
2021/03/10 12:11:06;;;;;;;11.98;7.47;;;;;;;;;;5029112;28;20053;-69
2021/03/10 12:13:32;;;;;;;11.20;6.63;;;;;;;;;;5029351;28;20080;-73
2021/03/10 12:15:58;;;;;;;10.18;7.40;;;;;;;;;;5009033;28;20046;-72
2021/03/10 12:18:34;;;;;;;10.23;6.68;;;;;;;;;;5029254;28;20496;-72
2021/03/10 12:21:00;;;;;;;12.52;6.80;;;;;;;;;;5030441;28;20370;-73
2021/03/10 12:23:26;;;;;;;11.95;7.07;;;;;;;;;;5030684;28;20068;-72
2021/03/10 12:25:53;;;;;;;10.27;7.18;;;;;;;;;;5030372;28;20492;-72
2021/03/10 12:28:19;;;;;;;10.13;6.78;;;;;;;;;;5030763;28;20111;-72
2021/03/10 12:30:45;;;;;;;13.60;7.07;;;;;;;;;;5031261;28;20504;-72
2021/03/10 12:33:12;;;;;;;11.20;6.45;;;;;;;;;;5031440;28;20420;-72
2021/03/10 12:35:39;;;;;;;8.40;5.43;;;;;;;;;;5026211;28;20444;-72
2021/03/10 12:38:06;;;;;;;9.15;6.07;;;;;;;;;;5010939;28;20045;-73
2021/03/10 12:40:48;;;;;;;12.60;6.75;;;;;;;;;;5015722;28;20080;-73
2021/03/10 12:43:14;;;;;;;8.93;5.85;;;;;;;;;;5031083;28;20049;-73
2021/03/10 12:45:40;;;;;;;8.93;5.20;;;;;;;;;;5028417;28;20041;-73
2021/03/10 12:48:07;;;;;;;8.27;5.53;;;;;;;;;;5030139;28;20083;-71
2021/03/10 12:50:33;;;;;;;7.47;4.43;;;;;;;;;;5030380;28;20459;-71
2021/03/10 12:53:00;;;;;;;7.72;4.72;;;;;;;;;;5030883;28;20061;-70
2021/03/10 12:55:26;;;;;;;6.38;4.55;;;;;;;;;;5029762;28;20083;-71
2021/03/10 12:57:52;;;;;;;7.60;5.22;;;;;;;;;;5029968;28;20076;-71
2021/03/10 13:00:18;;;;;;;7.13;5.07;;;;;;;;;;5030773;28;20081;-71
2021/03/10 13:02:47;;;;;;;10.55;5.38;;;;;;;;;;5026428;28;20496;-71
2021/03/10 13:05:13;;;;;;;7.85;5.00;;;;;;;;;;5028718;28;20045;-71
2021/03/10 13:07:39;;;;;;;9.93;5.65;;;;;;;;;;5029807;28;20053;-71
2021/03/10 13:10:06;;;;;;;11.15;6.05;;;;;;;;;;5030668;28;20469;-71
2021/03/10 13:12:34;;;;;;;9.50;6.00;;;;;;;;;;5030019;28;20053;-71
2021/03/10 13:15:10;;;;;;;7.78;4.90;;;;;;;;;;5024480;28;20045;-71
2021/03/10 13:17:36;;;;;;;9.05;5.47;;;;;;;;;;4993898;28;20045;-71
2021/03/10 13:20:05;;;;;;;7.00;4.88;;;;;;;;;;5030533;28;20141;-71
2021/03/10 13:22:31;;;;;;;7.63;4.93;;;;;;;;;;5029958;28;20463;-71
2021/03/10 13:24:57;;;;;;;7.70;4.50;;;;;;;;;;5029956;28;20100;-72
2021/03/10 13:27:29;;;;;;;8.05;4.72;;;;;;;;;;5028121;28;20136;-72
2021/03/10 13:29:55;;;;;;;5.63;4.60;;;;;;;;;;5029776;28;20107;-72
2021/03/10 13:32:21;;;;;;;10.90;5.55;;;;;;;;;;5012703;28;20195;-72
2021/03/10 13:34:47;;;;;;;6.43;4.25;;;;;;;;;;5029325;28;20076;-72
2021/03/10 13:37:14;;;;;;;7.97;4.90;;;;;;;;;;5028250;28;20051;-72
2021/03/10 13:39:40;;;;;;;9.23;5.32;;;;;;;;;;5029332;28;20554;-68
2021/03/10 13:42:10;;;;;;;9.73;5.78;;;;;;;;;;5027074;28;20049;-73
2021/03/10 13:44:36;;;;;;;7.38;4.97;;;;;;;;;;4980270;28;20050;-73
2021/03/10 13:47:03;;;;;;;8.57;5.05;;;;;;;;;;5012677;28;20057;-73
2021/03/10 13:49:32;;;;;;;7.07;5.00;;;;;;;;;;5029056;28;20093;-73
2021/03/10 13:52:00;;;;;;;7.28;5.13;;;;;;;;;;5012998;28;20138;-74
2021/03/10 13:54:26;;;;;;;10.10;5.53;;;;;;;;;;5011987;28;20041;-73
2021/03/10 13:56:54;;;;;;;8.25;5.30;;;;;;;;;;5010587;28;20057;-73
2021/03/10 13:59:21;;;;;;;8.88;5.45;;;;;;;;;;5029286;28;20057;-74
2021/03/10 14:01:47;;;;;;;7.50;5.18;;;;;;;;;;5012095;28;20091;-72
2021/03/10 14:04:17;;;;;;;7.70;4.75;;;;;;;;;;5028594;28;20132;-76
2021/03/10 14:06:45;;;;;;;7.43;4.90;;;;;;;;;;4977411;28;20160;-77
2021/03/10 14:09:23;;;;;;;7.65;4.78;;;;;;;;;;5013792;28;20114;-73
2021/03/10 14:11:56;;;;;;;6.13;4.13;;;;;;;;;;5013404;28;20052;-75
2021/03/10 14:14:23;;;;;;;6.43;4.65;;;;;;;;;;4995778;28;20124;-75
2021/03/10 14:16:50;;;;;;;7.07;4.75;;;;;;;;;;4979628;28;20412;-73
2021/03/10 14:19:17;;;;;;;5.47;4.35;;;;;;;;;;5028851;28;20112;-72
2021/03/10 14:21:46;;;;;;;9.65;5.43;;;;;;;;;;5027617;28;20466;-73
2021/03/10 14:24:13;;;;;;;8.52;5.38;;;;;;;;;;4996099;28;20103;-73
2021/03/10 14:27:05;;;;;;;7.93;5.72;;;;;;;;;;4979261;28;20054;-73
2021/03/10 14:29:31;;;;;;;5.75;4.47;;;;;;;;;;5030195;28;20049;-73
2021/03/10 14:31:58;;;;;;;7.32;4.97;;;;;;;;;;5023878;28;20508;-72